sensor_id;sensor_type;location;lat;lon;timestamp;pressure;altitude;pressure_sealevel;temperature;humidity
61761;BME280;47664;51.660;-0.100;2023-02-14T00:00:16;102560.32;;;3.84;60.65
61761;BME280;47664;51.660;-0.100;2023-02-14T00:00:23;102558.34;;;4.39;60.63
61761;BME280;47664;51.660;-0.100;2023-02-14T00:02:56;102561.68;;;4.08;59.53
61761;BME280;47664;51.660;-0.100;2023-02-14T00:05:28;102560.03;;;4.40;60.23
61761;BME280;47664;51.660;-0.100;2023-02-14T00:08:00;102559.87;;;4.26;58.63
61761;BME280;47664;51.660;-0.100;2023-02-14T00:10:32;102555.49;;;4.92;57.62
61761;BME280;47664;51.660;-0.100;2023-02-14T00:13:04;102554.18;;;4.87;57.31
61761;BME280;47664;51.660;-0.100;2023-02-14T00:15:36;102550.54;;;5.01;56.84
61761;BME280;47664;51.660;-0.100;2023-02-14T00:18:08;102547.33;;;4.92;56.01
61761;BME280;47664;51.660;-0.100;2023-02-14T00:20:41;102543.64;;;5.70;55.14
61761;BME280;47664;51.660;-0.100;2023-02-14T00:23:13;102545.42;;;5.44;55.20
61761;BME280;47664;51.660;-0.100;2023-02-14T00:25:46;102550.37;;;4.86;56.41
61761;BME280;47664;51.660;-0.100;2023-02-14T00:28:18;102548.98;;;4.17;57.98
61761;BME280;47664;51.660;-0.100;2023-02-14T00:30:51;102544.71;;;4.72;57.42
61761;BME280;47664;51.660;-0.100;2023-02-14T00:33:23;102549.29;;;4.07;57.79
61761;BME280;47664;51.660;-0.100;2023-02-14T00:35:55;102546.65;;;3.35;59.57
61761;BME280;47664;51.660;-0.100;2023-02-14T00:38:27;102540.03;;;4.15;58.52
61761;BME280;47664;51.660;-0.100;2023-02-14T00:40:59;102538.33;;;3.98;58.11
61761;BME280;47664;51.660;-0.100;2023-02-14T00:43:31;102543.65;;;4.27;57.84
61761;BME280;47664;51.660;-0.100;2023-02-14T00:46:04;102542.04;;;3.95;57.61
61761;BME280;47664;51.660;-0.100;2023-02-14T00:48:36;102542.13;;;4.53;56.79
61761;BME280;47664;51.660;-0.100;2023-02-14T00:51:09;102539.67;;;5.08;55.44
61761;BME280;47664;51.660;-0.100;2023-02-14T00:53:42;102534.67;;;5.20;54.46
61761;BME280;47664;51.660;-0.100;2023-02-14T00:56:14;102539.28;;;4.94;54.92
61761;BME280;47664;51.660;-0.100;2023-02-14T00:58:47;102533.73;;;5.05;54.49
61761;BME280;47664;51.660;-0.100;2023-02-14T01:01:20;102533.95;;;5.15;53.96
61761;BME280;47664;51.660;-0.100;2023-02-14T01:03:53;102539.96;;;4.56;55.12
61761;BME280;47664;51.660;-0.100;2023-02-14T01:06:25;102538.39;;;4.50;56.40
61761;BME280;47664;51.660;-0.100;2023-02-14T01:08:57;102531.42;;;4.25;55.49
61761;BME280;47664;51.660;-0.100;2023-02-14T01:11:30;102534.73;;;4.77;55.87
61761;BME280;47664;51.660;-0.100;2023-02-14T01:14:02;102537.83;;;4.33;56.19
61761;BME280;47664;51.660;-0.100;2023-02-14T01:16:34;102527.62;;;4.92;55.06
61761;BME280;47664;51.660;-0.100;2023-02-14T01:19:06;102522.35;;;4.61;55.32
61761;BME280;47664;51.660;-0.100;2023-02-14T01:21:39;102523.62;;;4.33;55.77
61761;BME280;47664;51.660;-0.100;2023-02-14T01:24:13;102523.17;;;3.88;58.31
61761;BME280;47664;51.660;-0.100;2023-02-14T01:26:45;102521.68;;;3.57;59.38
61761;BME280;47664;51.660;-0.100;2023-02-14T01:29:17;102519.70;;;3.21;59.60
61761;BME280;47664;51.660;-0.100;2023-02-14T01:31:50;102522.30;;;2.71;60.79
61761;BME280;47664;51.660;-0.100;2023-02-14T01:34:22;102520.45;;;2.89;61.01
61761;BME280;47664;51.660;-0.100;2023-02-14T01:36:54;102524.75;;;3.19;60.33
61761;BME280;47664;51.660;-0.100;2023-02-14T01:39:27;102520.70;;;3.38;59.12
61761;BME280;47664;51.660;-0.100;2023-02-14T01:41:59;102522.05;;;3.31;57.25
61761;BME280;47664;51.660;-0.100;2023-02-14T01:45:03;102521.17;;;3.92;56.06
61761;BME280;47664;51.660;-0.100;2023-02-14T01:47:40;102525.33;;;4.14;54.99
61761;BME280;47664;51.660;-0.100;2023-02-14T01:50:12;102518.42;;;4.61;54.05
61761;BME280;47664;51.660;-0.100;2023-02-14T01:52:49;102517.79;;;4.35;54.06
61761;BME280;47664;51.660;-0.100;2023-02-14T01:55:26;102522.13;;;4.19;54.47
61761;BME280;47664;51.660;-0.100;2023-02-14T01:58:02;102523.36;;;2.45;57.52
61761;BME280;47664;51.660;-0.100;2023-02-14T02:00:36;102515.46;;;3.82;56.99
61761;BME280;47664;51.660;-0.100;2023-02-14T02:03:09;102516.44;;;3.74;55.89
61761;BME280;47664;51.660;-0.100;2023-02-14T02:05:41;102513.64;;;4.16;54.98
61761;BME280;47664;51.660;-0.100;2023-02-14T02:08:15;102512.44;;;3.56;56.55
61761;BME280;47664;51.660;-0.100;2023-02-14T02:10:48;102509.10;;;3.34;58.04
61761;BME280;47664;51.660;-0.100;2023-02-14T02:13:22;102505.01;;;4.22;56.36
61761;BME280;47664;51.660;-0.100;2023-02-14T02:16:00;102511.13;;;3.49;56.71
61761;BME280;47664;51.660;-0.100;2023-02-14T02:18:37;102507.32;;;3.69;57.61
61761;BME280;47664;51.660;-0.100;2023-02-14T02:22:31;102505.58;;;3.92;55.91
61761;BME280;47664;51.660;-0.100;2023-02-14T02:25:13;102511.89;;;3.35;56.96
61761;BME280;47664;51.660;-0.100;2023-02-14T02:28:03;102507.36;;;3.96;55.97
61761;BME280;47664;51.660;-0.100;2023-02-14T02:30:56;102505.96;;;3.87;55.93
61761;BME280;47664;51.660;-0.100;2023-02-14T02:33:37;102503.40;;;3.99;55.05
61761;BME280;47664;51.660;-0.100;2023-02-14T02:37:22;102512.81;;;2.76;56.97
61761;BME280;47664;51.660;-0.100;2023-02-14T02:40:04;102508.07;;;1.72;60.14
61761;BME280;47664;51.660;-0.100;2023-02-14T02:42:44;102504.07;;;2.81;58.92
61761;BME280;47664;51.660;-0.100;2023-02-14T02:45:23;102508.51;;;2.40;58.31
61761;BME280;47664;51.660;-0.100;2023-02-14T02:47:57;102508.97;;;1.34;60.05
61761;BME280;47664;51.660;-0.100;2023-02-14T02:50:36;102504.83;;;1.72;60.76
61761;BME280;47664;51.660;-0.100;2023-02-14T02:53:14;102505.32;;;1.47;60.90
61761;BME280;47664;51.660;-0.100;2023-02-14T02:55:51;102503.18;;;1.33;62.20
61761;BME280;47664;51.660;-0.100;2023-02-14T02:58:28;102498.06;;;2.10;61.97
61761;BME280;47664;51.660;-0.100;2023-02-14T03:01:06;102498.74;;;2.05;59.71
61761;BME280;47664;51.660;-0.100;2023-02-14T03:03:42;102503.45;;;2.01;59.08
61761;BME280;47664;51.660;-0.100;2023-02-14T03:06:16;102496.10;;;2.35;59.33
61761;BME280;47664;51.660;-0.100;2023-02-14T03:08:48;102486.98;;;3.06;57.48
61761;BME280;47664;51.660;-0.100;2023-02-14T03:11:20;102487.47;;;2.89;56.85
61761;BME280;47664;51.660;-0.100;2023-02-14T03:13:58;102486.05;;;2.98;56.47
61761;BME280;47664;51.660;-0.100;2023-02-14T03:16:32;102483.08;;;3.23;57.01
61761;BME280;47664;51.660;-0.100;2023-02-14T03:19:12;102479.43;;;3.13;55.37
61761;BME280;47664;51.660;-0.100;2023-02-14T03:21:49;102477.54;;;3.77;54.76
61761;BME280;47664;51.660;-0.100;2023-02-14T03:24:24;102479.07;;;3.32;54.67
61761;BME280;47664;51.660;-0.100;2023-02-14T03:27:03;102481.94;;;2.28;55.84
61761;BME280;47664;51.660;-0.100;2023-02-14T03:29:42;102492.53;;;1.97;59.38
61761;BME280;47664;51.660;-0.100;2023-02-14T03:32:14;102489.97;;;1.63;60.39
61761;BME280;47664;51.660;-0.100;2023-02-14T03:34:53;102482.56;;;1.51;61.18
61761;BME280;47664;51.660;-0.100;2023-02-14T03:37:27;102482.83;;;1.03;60.54
61761;BME280;47664;51.660;-0.100;2023-02-14T03:40:07;102479.22;;;0.69;61.57
61761;BME280;47664;51.660;-0.100;2023-02-14T03:42:42;102477.13;;;1.69;61.57
61761;BME280;47664;51.660;-0.100;2023-02-14T03:45:21;102478.94;;;2.13;59.64
61761;BME280;47664;51.660;-0.100;2023-02-14T03:47:56;102476.43;;;2.44;58.14
61761;BME280;47664;51.660;-0.100;2023-02-14T03:50:30;102472.28;;;2.95;57.73
61761;BME280;47664;51.660;-0.100;2023-02-14T03:53:05;102477.71;;;2.93;58.15
61761;BME280;47664;51.660;-0.100;2023-02-14T03:55:42;102477.37;;;3.04;58.33
61761;BME280;47664;51.660;-0.100;2023-02-14T03:58:15;102476.02;;;3.31;58.70
61761;BME280;47664;51.660;-0.100;2023-02-14T04:00:53;102473.64;;;3.19;58.61
61761;BME280;47664;51.660;-0.100;2023-02-14T04:03:31;102476.13;;;3.34;58.09
61761;BME280;47664;51.660;-0.100;2023-02-14T04:06:05;102477.84;;;2.89;58.58
61761;BME280;47664;51.660;-0.100;2023-02-14T04:08:37;102476.81;;;3.01;57.54
61761;BME280;47664;51.660;-0.100;2023-02-14T04:11:09;102472.33;;;2.56;57.92
61761;BME280;47664;51.660;-0.100;2023-02-14T04:13:42;102470.48;;;3.11;56.85
61761;BME280;47664;51.660;-0.100;2023-02-14T04:16:14;102474.08;;;3.15;57.01
61761;BME280;47664;51.660;-0.100;2023-02-14T04:18:46;102468.56;;;3.14;57.16
61761;BME280;47664;51.660;-0.100;2023-02-14T04:21:19;102469.07;;;2.90;57.13
61761;BME280;47664;51.660;-0.100;2023-02-14T04:23:51;102467.39;;;2.82;56.82
61761;BME280;47664;51.660;-0.100;2023-02-14T04:26:23;102468.53;;;2.77;56.85
61761;BME280;47664;51.660;-0.100;2023-02-14T04:28:56;102472.59;;;2.21;56.36
61761;BME280;47664;51.660;-0.100;2023-02-14T04:31:27;102471.01;;;2.50;56.18
61761;BME280;47664;51.660;-0.100;2023-02-14T04:33:59;102463.90;;;2.32;56.28
61761;BME280;47664;51.660;-0.100;2023-02-14T04:36:31;102465.49;;;3.04;55.66
61761;BME280;47664;51.660;-0.100;2023-02-14T04:39:03;102469.09;;;2.13;56.16
61761;BME280;47664;51.660;-0.100;2023-02-14T04:41:36;102473.99;;;1.67;58.52
61761;BME280;47664;51.660;-0.100;2023-02-14T04:44:08;102475.36;;;0.42;62.02
61761;BME280;47664;51.660;-0.100;2023-02-14T04:46:40;102475.09;;;0.82;63.95
61761;BME280;47664;51.660;-0.100;2023-02-14T04:49:12;102473.81;;;0.29;63.56
61761;BME280;47664;51.660;-0.100;2023-02-14T04:51:45;102474.89;;;0.68;64.53
61761;BME280;47664;51.660;-0.100;2023-02-14T04:54:17;102477.26;;;0.84;64.39
61761;BME280;47664;51.660;-0.100;2023-02-14T04:56:50;102473.94;;;1.73;61.94
61761;BME280;47664;51.660;-0.100;2023-02-14T04:59:22;102483.56;;;2.06;61.24
61761;BME280;47664;51.660;-0.100;2023-02-14T05:01:55;102487.49;;;1.95;60.37
61761;BME280;47664;51.660;-0.100;2023-02-14T05:04:27;102480.37;;;2.54;59.07
61761;BME280;47664;51.660;-0.100;2023-02-14T05:06:59;102484.42;;;2.13;58.95
61761;BME280;47664;51.660;-0.100;2023-02-14T05:09:31;102481.92;;;3.03;59.18
61761;BME280;47664;51.660;-0.100;2023-02-14T05:12:03;102484.51;;;2.67;59.00
61761;BME280;47664;51.660;-0.100;2023-02-14T05:14:35;102487.18;;;2.80;58.81
61761;BME280;47664;51.660;-0.100;2023-02-14T05:17:08;102487.50;;;2.60;58.27
61761;BME280;47664;51.660;-0.100;2023-02-14T05:19:40;102494.22;;;2.42;59.20
61761;BME280;47664;51.660;-0.100;2023-02-14T05:22:12;102486.99;;;2.88;59.50
61761;BME280;47664;51.660;-0.100;2023-02-14T05:24:45;102491.42;;;2.86;59.90
61761;BME280;47664;51.660;-0.100;2023-02-14T05:27:17;102488.15;;;2.26;60.65
61761;BME280;47664;51.660;-0.100;2023-02-14T05:29:50;102482.98;;;3.09;59.64
61761;BME280;47664;51.660;-0.100;2023-02-14T05:32:22;102485.54;;;2.84;59.54
61761;BME280;47664;51.660;-0.100;2023-02-14T05:34:55;102486.92;;;2.31;60.44
61761;BME280;47664;51.660;-0.100;2023-02-14T05:37:27;102488.20;;;2.60;60.63
61761;BME280;47664;51.660;-0.100;2023-02-14T05:39:59;102486.91;;;1.50;61.22
61761;BME280;47664;51.660;-0.100;2023-02-14T05:42:31;102487.30;;;2.32;61.20
61761;BME280;47664;51.660;-0.100;2023-02-14T05:45:04;102485.76;;;1.95;60.50
61761;BME280;47664;51.660;-0.100;2023-02-14T05:47:37;102482.33;;;2.47;60.15
61761;BME280;47664;51.660;-0.100;2023-02-14T05:50:09;102482.13;;;1.77;60.02
61761;BME280;47664;51.660;-0.100;2023-02-14T05:52:42;102478.06;;;1.42;61.13
61761;BME280;47664;51.660;-0.100;2023-02-14T05:55:14;102472.66;;;1.62;62.13
61761;BME280;47664;51.660;-0.100;2023-02-14T05:57:47;102469.84;;;1.28;62.28
61761;BME280;47664;51.660;-0.100;2023-02-14T06:00:20;102474.80;;;0.29;64.47
61761;BME280;47664;51.660;-0.100;2023-02-14T06:02:53;102475.93;;;0.30;65.32
61761;BME280;47664;51.660;-0.100;2023-02-14T06:05:25;102478.09;;;0.60;65.24
61761;BME280;47664;51.660;-0.100;2023-02-14T06:07:58;102476.47;;;-0.27;65.56
61761;BME280;47664;51.660;-0.100;2023-02-14T06:10:30;102480.45;;;0.11;65.90
61761;BME280;47664;51.660;-0.100;2023-02-14T06:13:02;102477.74;;;-0.07;64.76
61761;BME280;47664;51.660;-0.100;2023-02-14T06:15:35;102474.32;;;0.71;63.97
61761;BME280;47664;51.660;-0.100;2023-02-14T06:18:08;102476.08;;;0.55;63.19
61761;BME280;47664;51.660;-0.100;2023-02-14T06:20:41;102470.81;;;0.86;62.82
61761;BME280;47664;51.660;-0.100;2023-02-14T06:23:13;102477.22;;;0.79;62.58
61761;BME280;47664;51.660;-0.100;2023-02-14T06:25:45;102475.19;;;1.66;60.61
61761;BME280;47664;51.660;-0.100;2023-02-14T06:28:17;102479.29;;;1.73;59.84
61761;BME280;47664;51.660;-0.100;2023-02-14T06:30:50;102484.42;;;1.99;59.47
61761;BME280;47664;51.660;-0.100;2023-02-14T06:33:22;102481.12;;;1.95;59.58
61761;BME280;47664;51.660;-0.100;2023-02-14T06:35:54;102486.53;;;1.82;60.07
61761;BME280;47664;51.660;-0.100;2023-02-14T06:38:26;102492.87;;;2.22;60.33
61761;BME280;47664;51.660;-0.100;2023-02-14T06:41:01;102497.53;;;1.36;60.42
61761;BME280;47664;51.660;-0.100;2023-02-14T06:43:34;102498.48;;;2.20;60.83
61761;BME280;47664;51.660;-0.100;2023-02-14T06:46:06;102498.29;;;1.47;59.94
61761;BME280;47664;51.660;-0.100;2023-02-14T06:48:38;102496.59;;;1.81;59.01
61761;BME280;47664;51.660;-0.100;2023-02-14T06:51:11;102502.13;;;1.85;58.99
61761;BME280;47664;51.660;-0.100;2023-02-14T06:53:43;102500.91;;;2.17;58.70
61761;BME280;47664;51.660;-0.100;2023-02-14T06:56:16;102503.89;;;2.04;59.20
61761;BME280;47664;51.660;-0.100;2023-02-14T06:58:48;102502.81;;;1.72;59.32
61761;BME280;47664;51.660;-0.100;2023-02-14T07:01:20;102503.38;;;2.13;59.31
61761;BME280;47664;51.660;-0.100;2023-02-14T07:03:53;102506.66;;;2.26;59.13
61761;BME280;47664;51.660;-0.100;2023-02-14T07:06:25;102506.24;;;1.82;59.69
61761;BME280;47664;51.660;-0.100;2023-02-14T07:08:57;102505.72;;;1.81;60.07
61761;BME280;47664;51.660;-0.100;2023-02-14T07:11:29;102506.67;;;1.67;60.79
61761;BME280;47664;51.660;-0.100;2023-02-14T07:14:02;102510.99;;;1.68;61.05
61761;BME280;47664;51.660;-0.100;2023-02-14T07:16:34;102515.64;;;2.18;60.53
61761;BME280;47664;51.660;-0.100;2023-02-14T07:19:07;102517.25;;;2.12;60.25
61761;BME280;47664;51.660;-0.100;2023-02-14T07:21:39;102520.46;;;1.80;60.89
61761;BME280;47664;51.660;-0.100;2023-02-14T07:24:12;102519.80;;;2.11;60.56
61761;BME280;47664;51.660;-0.100;2023-02-14T07:26:44;102517.90;;;2.00;61.09
61761;BME280;47664;51.660;-0.100;2023-02-14T07:29:16;102523.12;;;1.51;61.49
61761;BME280;47664;51.660;-0.100;2023-02-14T07:31:49;102527.56;;;1.64;60.89
61761;BME280;47664;51.660;-0.100;2023-02-14T07:34:21;102525.05;;;1.59;60.87
61761;BME280;47664;51.660;-0.100;2023-02-14T07:36:53;102526.97;;;1.77;60.78
61761;BME280;47664;51.660;-0.100;2023-02-14T07:39:26;102526.83;;;1.99;59.86
61761;BME280;47664;51.660;-0.100;2023-02-14T07:41:58;102530.84;;;1.90;59.82
61761;BME280;47664;51.660;-0.100;2023-02-14T07:44:31;102529.82;;;1.72;60.35
61761;BME280;47664;51.660;-0.100;2023-02-14T07:47:03;102530.34;;;1.09;59.55
61761;BME280;47664;51.660;-0.100;2023-02-14T07:49:35;102531.87;;;1.14;60.92
61761;BME280;47664;51.660;-0.100;2023-02-14T07:52:08;102530.64;;;0.23;62.65
61761;BME280;47664;51.660;-0.100;2023-02-14T07:54:41;102532.28;;;0.08;64.02
61761;BME280;47664;51.660;-0.100;2023-02-14T07:57:13;102535.80;;;-0.03;64.96
61761;BME280;47664;51.660;-0.100;2023-02-14T07:59:46;102535.39;;;-0.40;65.50
61761;BME280;47664;51.660;-0.100;2023-02-14T08:02:18;102537.24;;;-0.05;64.70
61761;BME280;47664;51.660;-0.100;2023-02-14T08:04:50;102537.93;;;0.91;63.44
61761;BME280;47664;51.660;-0.100;2023-02-14T08:07:23;102535.25;;;1.30;61.66
61761;BME280;47664;51.660;-0.100;2023-02-14T08:09:55;102537.77;;;1.43;61.33
61761;BME280;47664;51.660;-0.100;2023-02-14T08:12:27;102539.24;;;1.61;60.61
61761;BME280;47664;51.660;-0.100;2023-02-14T08:15:00;102540.33;;;1.52;60.29
61761;BME280;47664;51.660;-0.100;2023-02-14T08:17:32;102539.79;;;1.83;61.21
61761;BME280;47664;51.660;-0.100;2023-02-14T08:20:05;102543.10;;;1.42;61.64
61761;BME280;47664;51.660;-0.100;2023-02-14T08:22:38;102544.26;;;1.68;61.43
61761;BME280;47664;51.660;-0.100;2023-02-14T08:25:11;102549.25;;;2.02;61.10
61761;BME280;47664;51.660;-0.100;2023-02-14T08:27:43;102549.87;;;1.97;60.85
61761;BME280;47664;51.660;-0.100;2023-02-14T08:30:15;102548.13;;;2.08;61.09
61761;BME280;47664;51.660;-0.100;2023-02-14T08:32:48;102551.62;;;2.30;60.58
61761;BME280;47664;51.660;-0.100;2023-02-14T08:35:20;102550.01;;;2.57;60.00
61761;BME280;47664;51.660;-0.100;2023-02-14T08:37:52;102551.03;;;2.63;59.98
61761;BME280;47664;51.660;-0.100;2023-02-14T08:40:25;102551.69;;;2.56;60.38
61761;BME280;47664;51.660;-0.100;2023-02-14T08:42:57;102549.62;;;2.36;59.91
61761;BME280;47664;51.660;-0.100;2023-02-14T08:45:28;102552.01;;;2.12;60.76
61761;BME280;47664;51.660;-0.100;2023-02-14T08:48:00;102554.51;;;2.29;60.33
61761;BME280;47664;51.660;-0.100;2023-02-14T08:50:33;102552.85;;;2.56;60.02
61761;BME280;47664;51.660;-0.100;2023-02-14T08:53:06;102550.56;;;2.50;59.77
61761;BME280;47664;51.660;-0.100;2023-02-14T08:55:39;102547.98;;;2.94;59.07
61761;BME280;47664;51.660;-0.100;2023-02-14T08:58:12;102549.21;;;2.53;59.72
61761;BME280;47664;51.660;-0.100;2023-02-14T09:00:44;102549.58;;;2.72;59.46
61761;BME280;47664;51.660;-0.100;2023-02-14T09:03:16;102546.33;;;2.51;59.29
61761;BME280;47664;51.660;-0.100;2023-02-14T09:05:49;102543.87;;;2.86;59.23
61761;BME280;47664;51.660;-0.100;2023-02-14T09:08:21;102542.19;;;2.66;58.77
61761;BME280;47664;51.660;-0.100;2023-02-14T09:10:53;102549.52;;;2.65;59.42
61761;BME280;47664;51.660;-0.100;2023-02-14T09:13:25;102554.39;;;2.37;59.78
61761;BME280;47664;51.660;-0.100;2023-02-14T09:16:01;102549.45;;;2.44;59.34
61761;BME280;47664;51.660;-0.100;2023-02-14T09:18:34;102555.54;;;3.00;59.00
61761;BME280;47664;51.660;-0.100;2023-02-14T09:21:07;102553.19;;;2.55;59.23
61761;BME280;47664;51.660;-0.100;2023-02-14T09:23:40;102546.13;;;2.90;60.08
61761;BME280;47664;51.660;-0.100;2023-02-14T09:26:14;102547.83;;;2.18;61.44
61761;BME280;47664;51.660;-0.100;2023-02-14T09:28:47;102547.47;;;2.24;61.55
61761;BME280;47664;51.660;-0.100;2023-02-14T09:31:22;102546.46;;;2.15;61.53
61761;BME280;47664;51.660;-0.100;2023-02-14T09:33:55;102546.88;;;2.43;60.75
61761;BME280;47664;51.660;-0.100;2023-02-14T09:36:27;102545.78;;;2.66;60.97
61761;BME280;47664;51.660;-0.100;2023-02-14T09:39:00;102541.12;;;2.31;60.78
61761;BME280;47664;51.660;-0.100;2023-02-14T09:42:01;102543.89;;;2.70;61.28
61761;BME280;47664;51.660;-0.100;2023-02-14T09:44:40;102540.04;;;2.44;62.11
61761;BME280;47664;51.660;-0.100;2023-02-14T09:47:17;102538.43;;;2.53;62.39
61761;BME280;47664;51.660;-0.100;2023-02-14T09:49:51;102531.59;;;3.02;61.57
61761;BME280;47664;51.660;-0.100;2023-02-14T09:52:26;102529.61;;;2.82;61.43
61761;BME280;47664;51.660;-0.100;2023-02-14T09:54:58;102527.28;;;2.27;61.48
61761;BME280;47664;51.660;-0.100;2023-02-14T09:57:35;102524.39;;;2.88;61.17
61761;BME280;47664;51.660;-0.100;2023-02-14T10:00:16;102521.54;;;3.10;61.97
61761;BME280;47664;51.660;-0.100;2023-02-14T10:02:56;102518.09;;;3.12;61.84
61761;BME280;47664;51.660;-0.100;2023-02-14T10:05:30;102515.41;;;3.09;61.78
61761;BME280;47664;51.660;-0.100;2023-02-14T10:08:07;102514.52;;;2.97;62.10
61761;BME280;47664;51.660;-0.100;2023-02-14T10:10:45;102508.03;;;3.32;62.59
61761;BME280;47664;51.660;-0.100;2023-02-14T10:13:25;102502.80;;;3.51;62.65
61761;BME280;47664;51.660;-0.100;2023-02-14T10:15:58;102503.50;;;2.62;63.09
61761;BME280;47664;51.660;-0.100;2023-02-14T10:18:37;102503.42;;;3.59;62.63
61761;BME280;47664;51.660;-0.100;2023-02-14T10:21:13;102502.53;;;3.66;62.31
61761;BME280;47664;51.660;-0.100;2023-02-14T10:23:45;102504.75;;;3.80;62.39
61761;BME280;47664;51.660;-0.100;2023-02-14T10:26:18;102503.71;;;4.00;62.14
61761;BME280;47664;51.660;-0.100;2023-02-14T10:28:53;102503.31;;;4.16;61.64
61761;BME280;47664;51.660;-0.100;2023-02-14T10:31:29;102497.64;;;3.55;62.08
61761;BME280;47664;51.660;-0.100;2023-02-14T10:34:03;102501.82;;;3.46;62.46
61761;BME280;47664;51.660;-0.100;2023-02-14T10:36:42;102506.93;;;4.31;62.04
61761;BME280;47664;51.660;-0.100;2023-02-14T10:39:32;102504.43;;;4.06;62.24
61761;BME280;47664;51.660;-0.100;2023-02-14T10:42:12;102506.25;;;4.25;62.22
61761;BME280;47664;51.660;-0.100;2023-02-14T10:44:49;102504.13;;;4.53;61.90
61761;BME280;47664;51.660;-0.100;2023-02-14T10:47:30;102502.39;;;4.62;61.98
61761;BME280;47664;51.660;-0.100;2023-02-14T10:50:10;102502.69;;;4.53;61.83
61761;BME280;47664;51.660;-0.100;2023-02-14T10:52:43;102500.75;;;4.74;62.13
61761;BME280;47664;51.660;-0.100;2023-02-14T10:55:19;102502.21;;;4.60;62.21
61761;BME280;47664;51.660;-0.100;2023-02-14T10:57:54;102506.29;;;4.45;63.16
61761;BME280;47664;51.660;-0.100;2023-02-14T11:00:30;102502.27;;;4.84;63.27
61761;BME280;47664;51.660;-0.100;2023-02-14T11:03:06;102501.60;;;4.61;62.46
61761;BME280;47664;51.660;-0.100;2023-02-14T11:05:37;102495.80;;;5.22;62.49
61761;BME280;47664;51.660;-0.100;2023-02-14T11:08:14;102493.94;;;5.12;61.92
61761;BME280;47664;51.660;-0.100;2023-02-14T11:10:48;102494.26;;;5.34;61.40
61761;BME280;47664;51.660;-0.100;2023-02-14T11:13:33;102497.13;;;5.36;61.69
61761;BME280;47664;51.660;-0.100;2023-02-14T11:16:08;102496.91;;;5.22;62.32
61761;BME280;47664;51.660;-0.100;2023-02-14T11:18:41;102496.47;;;5.45;62.33
61761;BME280;47664;51.660;-0.100;2023-02-14T11:21:15;102495.68;;;5.74;61.82
61761;BME280;47664;51.660;-0.100;2023-02-14T11:23:49;102493.76;;;6.18;61.36
61761;BME280;47664;51.660;-0.100;2023-02-14T11:26:22;102490.83;;;6.16;61.69
61761;BME280;47664;51.660;-0.100;2023-02-14T11:29:00;102488.48;;;5.52;61.60
61761;BME280;47664;51.660;-0.100;2023-02-14T11:31:35;102486.64;;;6.33;61.15
61761;BME280;47664;51.660;-0.100;2023-02-14T11:34:19;102484.87;;;5.95;61.45
61761;BME280;47664;51.660;-0.100;2023-02-14T11:36:55;102480.63;;;6.56;61.17
61761;BME280;47664;51.660;-0.100;2023-02-14T11:39:27;102479.48;;;6.29;61.28
61761;BME280;47664;51.660;-0.100;2023-02-14T11:42:02;102474.54;;;5.69;61.13
61761;BME280;47664;51.660;-0.100;2023-02-14T11:44:36;102468.38;;;6.49;60.92
61761;BME280;47664;51.660;-0.100;2023-02-14T11:47:25;102465.80;;;6.42;59.96
61761;BME280;47664;51.660;-0.100;2023-02-14T11:49:55;102461.48;;;6.24;60.44
61761;BME280;47664;51.660;-0.100;2023-02-14T11:52:28;102458.01;;;6.94;59.33
61761;BME280;47664;51.660;-0.100;2023-02-14T11:55:01;102454.51;;;7.05;58.92
61761;BME280;47664;51.660;-0.100;2023-02-14T11:57:36;102458.72;;;7.33;58.61
61761;BME280;47664;51.660;-0.100;2023-02-14T12:00:15;102454.47;;;7.15;58.59
61761;BME280;47664;51.660;-0.100;2023-02-14T12:02:49;102450.70;;;7.24;58.17
61761;BME280;47664;51.660;-0.100;2023-02-14T12:05:26;102442.92;;;7.42;58.19
61761;BME280;47664;51.660;-0.100;2023-02-14T12:08:01;102437.40;;;7.02;57.69
61761;BME280;47664;51.660;-0.100;2023-02-14T12:10:35;102433.58;;;7.49;57.56
61761;BME280;47664;51.660;-0.100;2023-02-14T12:13:20;102429.72;;;7.87;57.56
61761;BME280;47664;51.660;-0.100;2023-02-14T12:15:53;102424.29;;;7.61;56.99
61761;BME280;47664;51.660;-0.100;2023-02-14T12:19:00;102419.95;;;7.75;56.65
61761;BME280;47664;51.660;-0.100;2023-02-14T12:21:43;102415.78;;;8.14;56.80
61761;BME280;47664;51.660;-0.100;2023-02-14T12:24:22;102414.36;;;8.19;56.28
61761;BME280;47664;51.660;-0.100;2023-02-14T12:27:00;102405.34;;;7.57;56.34
61761;BME280;47664;51.660;-0.100;2023-02-14T12:29:37;102404.00;;;8.63;56.07
61761;BME280;47664;51.660;-0.100;2023-02-14T12:32:13;102402.96;;;8.46;56.05
61761;BME280;47664;51.660;-0.100;2023-02-14T12:34:48;102400.24;;;8.46;56.05
61761;BME280;47664;51.660;-0.100;2023-02-14T12:37:22;102397.50;;;8.59;55.61
61761;BME280;47664;51.660;-0.100;2023-02-14T12:40:08;102396.94;;;8.11;55.55
61761;BME280;47664;51.660;-0.100;2023-02-14T12:42:51;102391.32;;;9.17;55.51
61761;BME280;47664;51.660;-0.100;2023-02-14T12:45:28;102389.21;;;9.10;54.89
61761;BME280;47664;51.660;-0.100;2023-02-14T12:48:12;102387.77;;;8.73;55.01
61761;BME280;47664;51.660;-0.100;2023-02-14T12:50:55;102385.68;;;9.62;53.95
61761;BME280;47664;51.660;-0.100;2023-02-14T12:53:49;102383.67;;;9.57;53.76
61761;BME280;47664;51.660;-0.100;2023-02-14T12:56:27;102385.03;;;9.83;53.32
61761;BME280;47664;51.660;-0.100;2023-02-14T12:59:07;102380.92;;;9.61;53.35
61761;BME280;47664;51.660;-0.100;2023-02-14T13:01:56;102378.47;;;10.14;52.99
61761;BME280;47664;51.660;-0.100;2023-02-14T13:05:12;102372.69;;;9.89;53.13
61761;BME280;47664;51.660;-0.100;2023-02-14T13:07:53;102371.27;;;10.02;52.94
61761;BME280;47664;51.660;-0.100;2023-02-14T13:10:34;102369.49;;;9.66;54.01
61761;BME280;47664;51.660;-0.100;2023-02-14T13:13:09;102364.86;;;10.11;52.30
61761;BME280;47664;51.660;-0.100;2023-02-14T13:15:45;102366.44;;;10.03;52.79
61761;BME280;47664;51.660;-0.100;2023-02-14T13:18:23;102364.40;;;10.16;52.44
61761;BME280;47664;51.660;-0.100;2023-02-14T13:21:02;102363.28;;;9.83;51.79
61761;BME280;47664;51.660;-0.100;2023-02-14T13:23:34;102362.65;;;9.63;53.11
61761;BME280;47664;51.660;-0.100;2023-02-14T13:26:06;102360.56;;;9.91;52.15
61761;BME280;47664;51.660;-0.100;2023-02-14T13:28:44;102357.53;;;10.17;51.61